createdAt,value
2019-02-08T00:01:42.163Z,3.80
2019-02-08T00:04:10.061Z,3.80
2019-02-08T00:06:37.734Z,3.80
2019-02-08T00:09:09.479Z,3.80
2019-02-08T00:11:37.328Z,3.80
2019-02-08T00:14:09.173Z,3.80
2019-02-08T00:16:39.717Z,3.70
2019-02-08T00:19:07.503Z,3.70
2019-02-08T00:21:35.443Z,3.80
2019-02-08T00:24:04.522Z,3.70
2019-02-08T00:26:32.343Z,3.70
2019-02-08T00:29:00.016Z,3.70
2019-02-08T00:31:29.328Z,3.70
2019-02-08T00:33:56.881Z,3.80
2019-02-08T00:36:24.595Z,3.80
2019-02-08T00:38:52.575Z,3.80
2019-02-08T00:41:20.271Z,3.80
2019-02-08T00:43:50.124Z,3.80
2019-02-08T00:46:18.076Z,3.70
2019-02-08T00:48:46.130Z,3.70
2019-02-08T00:51:13.722Z,3.70
2019-02-08T00:53:41.759Z,3.70
2019-02-08T00:56:09.569Z,3.60
2019-02-08T00:58:38.593Z,3.70
2019-02-08T01:01:06.385Z,3.70
2019-02-08T01:03:34.574Z,3.70
2019-02-08T01:06:03.486Z,3.70
2019-02-08T01:08:31.115Z,3.70
2019-02-08T01:11:01.128Z,3.70
2019-02-08T01:13:31.309Z,3.70
2019-02-08T01:15:59.600Z,3.70
2019-02-08T01:18:27.272Z,3.70
2019-02-08T01:20:55.347Z,3.80
2019-02-08T01:23:23.565Z,3.80
2019-02-08T01:25:51.437Z,3.80
2019-02-08T01:28:19.058Z,3.80
2019-02-08T01:30:47.038Z,3.80
2019-02-08T01:33:15.363Z,3.80
2019-02-08T01:35:43.031Z,3.80
2019-02-08T01:38:11.043Z,3.80
2019-02-08T01:40:38.951Z,3.80
2019-02-08T01:43:07.303Z,3.80
2019-02-08T01:45:35.858Z,3.80
2019-02-08T01:48:04.525Z,3.80
2019-02-08T01:50:32.578Z,3.80
2019-02-08T01:53:00.429Z,3.80
2019-02-08T01:55:29.103Z,3.90
2019-02-08T01:57:57.548Z,3.90
2019-02-08T02:00:37.185Z,3.90
2019-02-08T02:03:06.130Z,3.90
2019-02-08T02:05:33.944Z,3.90
2019-02-08T02:08:02.422Z,3.80
2019-02-08T02:10:39.194Z,3.80
2019-02-08T02:13:08.481Z,3.90
2019-02-08T02:15:36.237Z,3.90
2019-02-08T02:18:05.245Z,3.90
2019-02-08T02:20:35.514Z,3.90
2019-02-08T02:23:03.905Z,4.00
2019-02-08T02:25:31.840Z,3.90
2019-02-08T02:27:59.879Z,4.00
2019-02-08T02:30:30.175Z,3.90
2019-02-08T02:32:57.870Z,3.90
2019-02-08T02:35:25.802Z,3.90
2019-02-08T02:37:53.583Z,3.90
2019-02-08T02:40:21.775Z,3.90
2019-02-08T02:42:51.196Z,3.90
2019-02-08T02:45:23.953Z,3.90
2019-02-08T02:47:51.801Z,3.90
2019-02-08T02:50:20.051Z,3.90
2019-02-08T02:52:47.750Z,3.90
2019-02-08T02:55:15.869Z,3.80
2019-02-08T02:57:44.021Z,3.80
2019-02-08T03:00:16.060Z,3.80
2019-02-08T03:02:43.903Z,3.70
2019-02-08T03:05:12.285Z,3.70
2019-02-08T03:07:40.070Z,3.70
2019-02-08T03:10:09.629Z,3.70
2019-02-08T03:12:37.818Z,3.70
2019-02-08T03:15:07.411Z,3.70
2019-02-08T03:17:35.122Z,3.60
2019-02-08T03:20:04.124Z,3.60
2019-02-08T03:22:31.708Z,3.60
2019-02-08T03:24:59.355Z,3.70
2019-02-08T03:27:27.415Z,3.70
2019-02-08T03:29:55.057Z,3.70
2019-02-08T03:32:22.663Z,3.70
2019-02-08T03:34:51.136Z,3.70
2019-02-08T03:37:19.068Z,3.70
2019-02-08T03:39:46.754Z,3.70
2019-02-08T03:42:14.445Z,3.80
2019-02-08T03:44:47.589Z,3.80
2019-02-08T03:47:18.541Z,3.80
2019-02-08T03:49:47.722Z,3.80
2019-02-08T03:52:15.304Z,3.80
2019-02-08T03:54:42.967Z,3.90
2019-02-08T03:57:10.619Z,3.90
2019-02-08T03:59:38.305Z,3.90
2019-02-08T04:02:06.259Z,3.90
2019-02-08T04:04:33.976Z,3.90
2019-02-08T04:07:01.674Z,4.00
2019-02-08T04:09:29.427Z,4.00
2019-02-08T04:12:02.832Z,4.00
2019-02-08T04:14:30.529Z,4.00
2019-02-08T04:16:58.210Z,4.00
2019-02-08T04:19:25.878Z,4.00
2019-02-08T04:21:53.794Z,4.00
2019-02-08T04:24:29.826Z,4.10
2019-02-08T04:26:51.810Z,4.10
2019-02-08T04:29:19.545Z,4.00
2019-02-08T04:31:47.920Z,4.00
2019-02-08T04:34:15.585Z,3.90
2019-02-08T04:36:43.282Z,3.90
2019-02-08T04:39:11.119Z,4.00
2019-02-08T04:41:39.170Z,4.00
2019-02-08T04:44:06.848Z,4.00
2019-02-08T04:46:35.141Z,4.00
2019-02-08T04:49:02.752Z,4.00
2019-02-08T04:51:30.363Z,4.00
2019-02-08T04:53:58.248Z,4.00
2019-02-08T04:56:26.163Z,4.00
2019-02-08T04:58:53.786Z,4.00
2019-02-08T05:01:21.937Z,4.00
2019-02-08T05:03:49.490Z,4.00
2019-02-08T05:06:19.471Z,4.00
2019-02-08T05:08:48.701Z,4.00
2019-02-08T05:11:19.579Z,4.00
2019-02-08T05:13:57.068Z,4.00
2019-02-08T05:16:24.991Z,4.00
2019-02-08T05:18:52.619Z,3.90
2019-02-08T05:21:22.864Z,3.90
2019-02-08T05:23:50.583Z,3.90
2019-02-08T05:26:18.163Z,3.90
2019-02-08T05:28:46.058Z,3.90
2019-02-08T05:31:13.865Z,4.00
2019-02-08T05:33:41.476Z,4.00
2019-02-08T05:36:09.280Z,3.90
2019-02-08T05:38:36.991Z,3.90
2019-02-08T05:41:04.635Z,3.90
2019-02-08T05:43:32.175Z,3.90
2019-02-08T05:45:59.825Z,4.00
2019-02-08T05:48:27.502Z,4.00
2019-02-08T05:50:56.957Z,4.00
2019-02-08T05:53:24.623Z,4.10
2019-02-08T05:55:54.807Z,4.10
2019-02-08T05:58:22.452Z,4.10
2019-02-08T06:00:55.640Z,4.20
2019-02-08T06:03:23.250Z,4.10
2019-02-08T06:05:51.214Z,4.10
2019-02-08T06:08:19.055Z,4.20
2019-02-08T06:10:46.729Z,4.10
2019-02-08T06:13:14.605Z,4.20
2019-02-08T06:15:42.491Z,4.10
2019-02-08T06:18:11.036Z,4.20
2019-02-08T06:20:39.661Z,4.20
2019-02-08T06:23:07.471Z,4.20
2019-02-08T06:25:35.231Z,4.20
2019-02-08T06:28:04.016Z,4.30
2019-02-08T06:30:31.991Z,4.20
2019-02-08T06:33:00.698Z,4.20
2019-02-08T06:35:29.763Z,4.20
2019-02-08T06:37:57.484Z,4.30
2019-02-08T06:40:25.441Z,4.20
2019-02-08T06:42:57.231Z,4.30
2019-02-08T06:45:25.339Z,4.30
2019-02-08T06:47:53.874Z,4.30
2019-02-08T06:50:23.018Z,4.30
2019-02-08T06:52:50.711Z,4.20
2019-02-08T06:55:19.307Z,4.20
2019-02-08T06:58:07.091Z,4.20
2019-02-08T07:01:00.273Z,4.30
2019-02-08T07:03:46.003Z,4.20
2019-02-08T07:06:32.027Z,4.20
2019-02-08T07:09:13.476Z,4.20
2019-02-08T07:12:09.610Z,4.20
2019-02-08T07:15:04.694Z,4.30
2019-02-08T07:17:51.776Z,4.30
2019-02-08T07:20:50.774Z,4.20
2019-02-08T07:23:45.260Z,4.20
2019-02-08T07:26:35.226Z,4.30
2019-02-08T07:29:18.728Z,4.30
2019-02-08T07:32:18.036Z,4.30
2019-02-08T07:35:03.616Z,4.30
2019-02-08T07:37:49.582Z,4.30
2019-02-08T07:40:48.140Z,4.40
2019-02-08T07:43:34.818Z,4.30
2019-02-08T07:46:25.720Z,4.30
2019-02-08T07:49:16.178Z,4.40
2019-02-08T07:52:06.471Z,4.40
2019-02-08T07:54:57.199Z,4.40
2019-02-08T07:57:47.911Z,4.40
2019-02-08T08:00:39.542Z,4.50
2019-02-08T08:03:32.350Z,4.60
2019-02-08T08:06:22.964Z,4.50
2019-02-08T08:09:13.474Z,4.50
2019-02-08T08:12:03.955Z,4.50
2019-02-08T08:14:51.892Z,4.50
2019-02-08T08:17:45.246Z,4.50
2019-02-08T08:20:37.325Z,4.60
2019-02-08T08:23:23.444Z,4.60
2019-02-08T08:26:18.841Z,4.70
2019-02-08T08:29:17.965Z,4.50
2019-02-08T08:32:19.461Z,4.60
2019-02-08T08:35:29.186Z,4.60
2019-02-08T08:38:53.806Z,4.60
2019-02-08T08:41:45.411Z,4.50
2019-02-08T08:44:38.218Z,4.60
2019-02-08T08:47:42.209Z,4.60
2019-02-08T08:50:59.756Z,4.50
2019-02-08T08:54:10.708Z,4.70
2019-02-08T08:57:06.759Z,4.70
2019-02-08T09:00:34.304Z,4.70
2019-02-08T09:03:27.208Z,4.60
2019-02-08T09:06:48.374Z,4.60
2019-02-08T09:09:58.148Z,4.60
2019-02-08T09:13:03.697Z,4.70
2019-02-08T09:16:24.022Z,4.70
2019-02-08T09:19:17.259Z,4.80
2019-02-08T09:22:05.352Z,4.90
2019-02-08T09:25:06.028Z,4.90
2019-02-08T09:28:23.951Z,4.90
2019-02-08T09:31:26.643Z,5.00
2019-02-08T09:34:19.745Z,5.20
2019-02-08T09:37:29.482Z,5.10
2019-02-08T09:40:29.587Z,5.20
2019-02-08T09:43:43.321Z,5.20
2019-02-08T09:46:59.073Z,5.30
2019-02-08T09:50:23.265Z,5.30
2019-02-08T09:53:25.791Z,5.30
2019-02-08T09:56:34.084Z,5.40
2019-02-08T09:59:55.824Z,5.40
2019-02-08T10:03:09.123Z,5.60
2019-02-08T10:06:31.819Z,5.70
2019-02-08T10:09:38.842Z,5.90
2019-02-08T10:12:47.002Z,6.00
2019-02-08T10:15:54.895Z,6.20
2019-02-08T10:19:22.254Z,6.10
2019-02-08T10:22:39.746Z,6.20
2019-02-08T10:25:54.126Z,6.10
2019-02-08T10:29:21.431Z,6.10
2019-02-08T10:32:28.281Z,6.00
2019-02-08T10:35:48.518Z,6.00
2019-02-08T10:39:06.480Z,6.00
2019-02-08T10:42:30.053Z,6.20
2019-02-08T10:45:37.846Z,6.20
2019-02-08T10:49:02.289Z,6.10
2019-02-08T10:52:06.681Z,6.00
2019-02-08T10:55:40.286Z,6.10
2019-02-08T10:58:52.784Z,6.20
2019-02-08T11:01:56.770Z,6.40
2019-02-08T11:05:00.421Z,6.30
2019-02-08T11:07:56.400Z,6.40
2019-02-08T11:11:10.571Z,6.50
2019-02-08T11:14:30.888Z,6.60
2019-02-08T11:17:54.807Z,6.70
2019-02-08T11:20:22.822Z,6.60
2019-02-08T11:22:53.937Z,6.50
2019-02-08T11:25:21.586Z,6.40
2019-02-08T11:27:49.704Z,6.50
2019-02-08T11:30:17.559Z,6.50
2019-02-08T11:32:45.319Z,6.40
2019-02-08T11:35:14.089Z,6.50
2019-02-08T11:37:46.232Z,6.50
2019-02-08T11:40:18.160Z,6.60
2019-02-08T11:42:46.237Z,6.60
2019-02-08T11:45:14.245Z,6.60
2019-02-08T11:47:42.000Z,6.50
2019-02-08T11:50:13.770Z,6.50
2019-02-08T11:52:42.830Z,6.50
2019-02-08T11:55:11.078Z,6.50
2019-02-08T11:57:38.983Z,6.60
2019-02-08T12:00:17.779Z,6.60
2019-02-08T12:02:46.479Z,6.70
2019-02-08T12:05:16.990Z,6.70
2019-02-08T12:07:45.499Z,6.70
2019-02-08T12:10:13.529Z,6.80
2019-02-08T12:12:41.495Z,7.10
2019-02-08T12:15:13.023Z,7.00
2019-02-08T12:17:41.008Z,7.10
2019-02-08T12:20:10.227Z,6.70
2019-02-08T12:22:40.516Z,6.80
2019-02-08T12:25:18.743Z,6.90
2019-02-08T12:27:49.217Z,6.90
2019-02-08T12:30:26.757Z,6.80
2019-02-08T12:32:54.437Z,7.10
2019-02-08T12:35:23.208Z,7.10
2019-02-08T12:37:51.267Z,7.10
2019-02-08T12:40:19.611Z,7.20
2019-02-08T12:42:47.389Z,7.20
2019-02-08T12:45:23.314Z,7.30
2019-02-08T12:47:51.998Z,7.30
2019-02-08T12:50:19.733Z,7.00
2019-02-08T12:52:49.191Z,7.20
2019-02-08T12:55:17.117Z,7.00
2019-02-08T12:57:44.727Z,6.90
2019-02-08T13:00:15.727Z,7.00
2019-02-08T13:02:44.167Z,6.90
2019-02-08T13:05:13.078Z,7.00
2019-02-08T13:07:40.729Z,7.10
2019-02-08T13:10:11.822Z,6.90
2019-02-08T13:12:39.431Z,7.10
2019-02-08T13:15:08.839Z,7.10
2019-02-08T13:17:36.637Z,7.10
2019-02-08T13:20:08.746Z,7.00
2019-02-08T13:22:36.507Z,7.00
2019-02-08T13:25:07.429Z,7.10
2019-02-08T13:27:37.694Z,7.30
2019-02-08T13:30:15.094Z,7.30
2019-02-08T13:32:46.027Z,7.00
2019-02-08T13:35:13.627Z,7.10
2019-02-08T13:37:41.722Z,7.10
2019-02-08T13:40:10.821Z,7.10
2019-02-08T13:42:38.553Z,7.20
2019-02-08T13:45:06.752Z,7.20
2019-02-08T13:47:34.410Z,7.20
2019-02-08T13:50:04.940Z,7.10
2019-02-08T13:52:40.113Z,7.00
2019-02-08T13:55:09.458Z,7.00
2019-02-08T13:57:37.256Z,7.00
2019-02-08T14:00:08.893Z,7.10
2019-02-08T14:02:37.028Z,7.20
2019-02-08T14:05:06.079Z,7.00
2019-02-08T14:07:34.303Z,7.00
2019-02-08T14:10:02.286Z,7.00
2019-02-08T14:12:31.087Z,7.20
2019-02-08T14:15:00.258Z,7.10
2019-02-08T14:17:31.567Z,7.00
2019-02-08T14:19:59.315Z,7.10
2019-02-08T14:22:28.356Z,7.10
2019-02-08T14:24:56.722Z,7.00
2019-02-08T14:27:24.671Z,7.10
2019-02-08T14:29:52.758Z,7.10
2019-02-08T14:32:22.497Z,7.10
2019-02-08T14:34:55.314Z,7.10
2019-02-08T14:37:25.538Z,7.20
2019-02-08T14:39:59.148Z,7.20
2019-02-08T14:42:28.492Z,7.20
2019-02-08T14:44:58.120Z,7.10
2019-02-08T14:47:31.142Z,7.20
2019-02-08T14:49:59.328Z,7.40
2019-02-08T14:52:33.544Z,7.40
2019-02-08T14:55:01.575Z,7.20
2019-02-08T14:57:29.487Z,7.20
2019-02-08T14:59:59.052Z,7.30
2019-02-08T15:02:27.054Z,7.30
2019-02-08T15:04:55.131Z,7.20
2019-02-08T15:07:22.770Z,7.20
2019-02-08T15:09:50.727Z,7.20
2019-02-08T15:12:18.625Z,7.20
2019-02-08T15:14:46.463Z,7.20
2019-02-08T15:17:17.811Z,7.20
2019-02-08T15:19:53.771Z,7.20
2019-02-08T15:22:21.617Z,7.20
2019-02-08T15:24:50.271Z,7.10
2019-02-08T15:27:24.134Z,7.10
2019-02-08T15:29:50.056Z,7.10
2019-02-08T15:32:17.741Z,7.10
2019-02-08T15:34:45.435Z,7.10
2019-02-08T15:37:13.702Z,7.00
2019-02-08T15:39:41.514Z,7.10
2019-02-08T15:42:09.268Z,7.00
2019-02-08T15:44:37.037Z,6.90
2019-02-08T15:47:04.952Z,7.00
2019-02-08T15:49:36.753Z,6.90
2019-02-08T15:52:06.339Z,7.00
2019-02-08T15:54:34.368Z,7.00
2019-02-08T15:57:02.347Z,6.90
2019-02-08T15:59:30.554Z,6.90
2019-02-08T16:01:58.339Z,6.80
2019-02-08T16:04:26.662Z,6.80
2019-02-08T16:06:56.629Z,6.70
2019-02-08T16:09:24.698Z,6.70
2019-02-08T16:11:52.495Z,6.60
2019-02-08T16:14:20.434Z,6.60
2019-02-08T16:16:48.319Z,6.60
2019-02-08T16:19:16.150Z,6.50
2019-02-08T16:21:45.266Z,6.50
2019-02-08T16:24:12.943Z,6.50
2019-02-08T16:26:42.729Z,6.40
2019-02-08T16:29:10.322Z,6.40
2019-02-08T16:31:38.314Z,6.40
2019-02-08T16:34:12.521Z,6.40
2019-02-08T16:36:40.663Z,6.40
2019-02-08T16:39:11.524Z,6.40
2019-02-08T16:41:39.370Z,6.40
2019-02-08T16:44:07.531Z,6.40
2019-02-08T16:46:38.091Z,6.40
2019-02-08T16:49:07.405Z,6.50
2019-02-08T16:51:35.219Z,6.50
2019-02-08T16:54:08.059Z,6.50
2019-02-08T16:56:36.142Z,6.50
2019-02-08T16:59:10.254Z,6.50
2019-02-08T17:01:44.013Z,6.40
2019-02-08T17:04:11.688Z,6.40
2019-02-08T17:06:41.803Z,6.40
2019-02-08T17:09:17.814Z,6.40
2019-02-08T17:11:47.061Z,6.30
2019-02-08T17:14:15.234Z,6.30
2019-02-08T17:16:43.093Z,6.30
2019-02-08T17:19:10.803Z,6.30
2019-02-08T17:21:38.523Z,6.30
2019-02-08T17:24:09.117Z,6.20
2019-02-08T17:26:39.273Z,6.20
2019-02-08T17:29:07.013Z,6.30
2019-02-08T17:31:37.736Z,6.30
2019-02-08T17:34:06.315Z,6.30
2019-02-08T17:36:34.418Z,6.20
2019-02-08T17:39:06.709Z,6.30
2019-02-08T17:41:34.595Z,6.30
2019-02-08T17:44:03.729Z,6.30
2019-02-08T17:46:34.211Z,6.30
2019-02-08T17:49:04.401Z,6.40
2019-02-08T17:51:32.266Z,6.40
2019-02-08T17:54:00.170Z,6.40
2019-02-08T17:56:28.106Z,6.30
2019-02-08T17:58:59.538Z,6.40
2019-02-08T18:01:27.512Z,6.30
2019-02-08T18:03:55.758Z,6.40
2019-02-08T18:06:23.591Z,6.40
2019-02-08T18:08:54.326Z,6.40
2019-02-08T18:11:22.247Z,6.50
2019-02-08T18:13:49.946Z,6.50
2019-02-08T18:16:26.346Z,6.50
2019-02-08T18:18:54.184Z,6.50
2019-02-08T18:21:22.187Z,6.50
2019-02-08T18:23:52.572Z,6.60
2019-02-08T18:26:22.592Z,6.60
2019-02-08T18:28:50.373Z,6.60
2019-02-08T18:31:17.973Z,6.60
2019-02-08T18:33:46.864Z,6.60
2019-02-08T18:36:17.826Z,6.60
2019-02-08T18:38:47.241Z,6.60
2019-02-08T18:41:15.296Z,6.60
2019-02-08T18:43:43.282Z,6.70
2019-02-08T18:46:11.401Z,6.70
2019-02-08T18:48:40.323Z,6.70
2019-02-08T18:51:08.045Z,6.70
2019-02-08T18:53:35.954Z,6.70
2019-02-08T18:56:05.016Z,6.70
2019-02-08T18:58:32.711Z,6.70
2019-02-08T19:01:00.919Z,6.60
2019-02-08T19:03:28.584Z,6.60
2019-02-08T19:06:00.740Z,6.60
2019-02-08T19:08:28.378Z,6.50
2019-02-08T19:11:00.140Z,6.50
2019-02-08T19:13:31.612Z,6.50
2019-02-08T19:15:59.550Z,6.60
2019-02-08T19:18:36.892Z,6.70
2019-02-08T19:21:07.750Z,6.60
2019-02-08T19:23:36.504Z,6.60
2019-02-08T19:26:12.085Z,6.60
2019-02-08T19:28:40.562Z,6.60
2019-02-08T19:31:08.497Z,6.50
2019-02-08T19:33:36.120Z,6.50
2019-02-08T19:36:05.282Z,6.40
2019-02-08T19:38:33.210Z,6.40
2019-02-08T19:41:00.953Z,6.40
2019-02-08T19:43:28.981Z,6.40
2019-02-08T19:45:56.652Z,6.30
2019-02-08T19:48:41.487Z,6.30
2019-02-08T19:51:12.286Z,6.20
2019-02-08T19:53:39.971Z,6.20
2019-02-08T19:56:09.386Z,6.20
2019-02-08T19:58:37.432Z,6.10
2019-02-08T20:01:05.421Z,6.00
2019-02-08T20:03:33.458Z,6.00
2019-02-08T20:06:03.389Z,6.00
2019-02-08T20:08:31.149Z,5.90
2019-02-08T20:11:01.707Z,5.90
2019-02-08T20:13:30.294Z,6.00
2019-02-08T20:15:58.299Z,6.00
2019-02-08T20:18:25.990Z,6.00
2019-02-08T20:21:16.404Z,6.00
2019-02-08T20:23:49.639Z,6.00
2019-02-08T20:26:18.148Z,6.00
2019-02-08T20:28:48.320Z,6.00
2019-02-08T20:31:16.324Z,6.00
2019-02-08T20:33:58.293Z,5.90
2019-02-08T20:36:45.695Z,5.90
2019-02-08T20:39:16.241Z,5.90
2019-02-08T20:41:46.264Z,5.80
2019-02-08T20:44:14.603Z,5.80
2019-02-08T20:46:42.453Z,5.80
2019-02-08T20:49:10.528Z,5.80
2019-02-08T20:51:38.644Z,5.70
2019-02-08T20:54:06.387Z,5.70
2019-02-08T20:56:34.534Z,5.70
2019-02-08T20:59:09.496Z,5.70
2019-02-08T21:01:40.613Z,5.70
2019-02-08T21:04:10.901Z,5.70
2019-02-08T21:06:38.463Z,5.70
2019-02-08T21:09:12.952Z,5.70
2019-02-08T21:11:41.152Z,5.70
2019-02-08T21:14:10.866Z,5.70
2019-02-08T21:16:38.906Z,5.70
2019-02-08T21:19:06.626Z,5.70
2019-02-08T21:21:34.234Z,5.60
2019-02-08T21:24:02.394Z,5.60
2019-02-08T21:26:30.432Z,5.60
2019-02-08T21:29:01.077Z,5.50
2019-02-08T21:31:32.572Z,5.50
2019-02-08T21:34:08.934Z,5.50
2019-02-08T21:36:38.958Z,5.50
2019-02-08T21:39:09.897Z,5.40
2019-02-08T21:41:38.048Z,5.50
2019-02-08T21:44:06.014Z,5.40
2019-02-08T21:46:36.514Z,5.40
2019-02-08T21:49:04.460Z,5.40
2019-02-08T21:51:32.122Z,5.30
2019-02-08T21:53:59.798Z,5.40
2019-02-08T21:56:27.608Z,5.30
2019-02-08T21:58:55.505Z,5.30
2019-02-08T22:01:45.074Z,5.30
2019-02-08T22:04:14.318Z,5.20
2019-02-08T22:06:42.355Z,5.20
2019-02-08T22:09:10.417Z,5.20
2019-02-08T22:11:39.252Z,5.20
2019-02-08T22:14:07.284Z,5.10
2019-02-08T22:16:35.169Z,5.20
2019-02-08T22:19:02.861Z,5.10
2019-02-08T22:21:32.303Z,5.10
2019-02-08T22:24:00.202Z,5.10
2019-02-08T22:26:28.286Z,5.10
2019-02-08T22:29:01.290Z,5.20
2019-02-08T22:31:29.078Z,5.20
2019-02-08T22:33:57.076Z,5.20
2019-02-08T22:36:29.899Z,5.10
2019-02-08T22:38:57.554Z,5.20
2019-02-08T22:41:28.025Z,5.10
2019-02-08T22:43:55.834Z,5.10
2019-02-08T22:46:23.411Z,5.10
2019-02-08T22:48:51.096Z,5.10
2019-02-08T22:51:21.930Z,5.10
2019-02-08T22:53:49.563Z,5.10
2019-02-08T22:56:17.858Z,5.10
2019-02-08T22:58:45.754Z,5.10
2019-02-08T23:01:26.346Z,5.10
2019-02-08T23:04:01.839Z,5.10
2019-02-08T23:06:32.526Z,5.10
2019-02-08T23:09:00.480Z,5.10
2019-02-08T23:11:28.464Z,5.20
2019-02-08T23:13:56.889Z,5.20
2019-02-08T23:16:27.510Z,5.30
2019-02-08T23:18:56.035Z,5.40
2019-02-08T23:21:23.940Z,5.40
2019-02-08T23:23:51.568Z,5.50
2019-02-08T23:26:19.124Z,5.60
2019-02-08T23:28:50.440Z,5.70
2019-02-08T23:31:20.553Z,5.70
2019-02-08T23:33:48.484Z,5.70
2019-02-08T23:36:36.682Z,5.70
2019-02-08T23:39:11.499Z,5.70
2019-02-08T23:41:39.371Z,5.70
2019-02-08T23:44:07.074Z,5.70
2019-02-08T23:46:34.795Z,5.70
2019-02-08T23:49:02.787Z,5.70
2019-02-08T23:51:33.221Z,5.70
2019-02-08T23:54:02.777Z,5.70
2019-02-08T23:56:31.980Z,5.70
2019-02-08T23:58:59.559Z,5.70
